createdAt,value
2018-05-24T20:29:54.205Z,20.00
2018-05-24T20:32:20.215Z,18.97
2018-05-24T20:34:46.235Z,20.60
2018-05-24T20:37:12.268Z,18.77
2018-05-24T20:39:38.274Z,18.33
2018-05-24T20:42:04.287Z,17.37
2018-05-24T20:44:30.313Z,19.03
2018-05-24T20:46:56.398Z,18.47
2018-05-24T20:49:22.414Z,17.60
2018-05-24T20:51:48.448Z,17.93
2018-05-24T20:54:14.456Z,17.87
2018-05-24T20:56:40.490Z,17.17
2018-05-24T20:59:06.486Z,17.17
2018-05-24T21:01:32.505Z,16.63
2018-05-24T21:03:58.508Z,16.47
2018-05-24T21:06:24.538Z,16.87
2018-05-24T21:08:50.542Z,17.10
2018-05-24T21:11:16.555Z,15.60
2018-05-24T21:13:42.599Z,16.33
2018-05-24T21:16:08.627Z,17.00
2018-05-24T21:18:34.634Z,16.30
2018-05-24T21:21:00.893Z,15.60
2018-05-24T21:23:26.922Z,17.43
2018-05-24T21:25:52.935Z,16.53
2018-05-24T21:28:18.945Z,15.47
2018-05-24T21:30:44.979Z,14.27
2018-05-24T21:33:10.980Z,14.10
2018-05-24T21:35:37.031Z,14.97
2018-05-24T21:38:03.042Z,15.90
2018-05-24T21:40:29.074Z,14.50
2018-05-24T21:42:55.092Z,15.33
2018-05-24T21:45:21.160Z,14.80
2018-05-24T21:47:47.173Z,13.30
2018-05-24T21:50:13.246Z,14.97
2018-05-24T21:52:39.265Z,13.97
2018-05-24T21:55:05.283Z,14.67
2018-05-24T21:57:31.291Z,15.33
2018-05-24T21:59:57.307Z,14.03
2018-05-24T22:02:23.313Z,13.40
2018-05-24T22:04:49.332Z,13.70
2018-05-24T22:07:15.361Z,13.53
2018-05-24T22:09:41.367Z,12.53
2018-05-24T22:12:07.374Z,13.00
2018-05-24T22:14:33.386Z,12.70
2018-05-24T22:16:59.423Z,13.40
2018-05-24T22:19:25.462Z,13.47
2018-05-24T22:21:51.469Z,13.63
2018-05-24T22:24:17.486Z,13.10
2018-05-24T22:26:43.511Z,12.30
2018-05-24T22:29:09.676Z,12.10
2018-05-24T22:31:35.694Z,12.33
2018-05-24T22:34:01.699Z,12.13
2018-05-24T22:36:27.708Z,12.73
2018-05-24T22:38:53.711Z,12.77
2018-05-24T22:41:19.727Z,13.03
2018-05-24T22:43:45.728Z,12.57
2018-05-24T22:46:11.738Z,12.00
2018-05-24T22:48:37.755Z,12.50
2018-05-24T22:51:03.807Z,12.57
2018-05-24T22:53:29.806Z,12.30
2018-05-24T22:55:55.846Z,11.80
2018-05-24T22:58:21.850Z,12.10
2018-05-24T23:00:47.871Z,11.30
2018-05-24T23:03:13.875Z,12.00
2018-05-24T23:05:39.885Z,11.70
2018-05-24T23:08:05.886Z,10.63
2018-05-24T23:10:31.903Z,10.97
2018-05-24T23:12:57.901Z,12.47
2018-05-24T23:15:23.911Z,11.80
2018-05-24T23:17:49.908Z,11.43
2018-05-24T23:20:15.926Z,11.27
2018-05-24T23:22:41.927Z,11.23
2018-05-24T23:27:40.391Z,11.70
2018-05-24T23:30:06.402Z,11.30
2018-05-24T23:32:32.403Z,11.83
2018-05-24T23:34:58.406Z,12.10
2018-05-24T23:37:24.430Z,11.73
2018-05-24T23:39:50.434Z,11.00
2018-05-24T23:42:16.454Z,11.27
2018-05-24T23:44:42.460Z,10.00
2018-05-24T23:47:08.462Z,12.43
2018-05-24T23:49:34.476Z,11.77
2018-05-24T23:52:00.499Z,11.27
2018-05-24T23:54:26.511Z,10.70
2018-05-24T23:56:52.528Z,10.50
2018-05-24T23:59:18.531Z,11.00
